Latest Weather Observations for Bougainville Reef

IDQ60801

Issued at 4:03 pm EST Saturday 24 February 2024 (issued every 10 minutes, with the page automatically refreshed every 10 minutes)

About weather observations | Map of weather stations | Latest weather observations for QLD | Other Formats
Station Details ID: 200840 Name: BOUGAINVILLE REEF Lat: -15.49 Lon: 147.12 Height: 0.0 m
Data from the previous 72 hours. | See also: Recent months for locations in Queensland
Date/Time
EST
Temp
°C
App
Temp
°C
Dew
Point
°C
Rel
Hum
%
Delta-T
°C
Wind Press
QNH
hPa
Press
MSL
hPa
Rain since
9am
mm
Dir  Spd
km/h
Gust
km/h
Spd
kts
Gust
kts
24/04:00pm 30.2 - - - - SW 4 9 2 5 1005.9 1005.8 -
24/03:30pm 30.9 - - - - CALM 0 6 0 3 1006.1 1006.0 -
24/03:00pm 29.7 - - - - CALM 0 2 0 1 1006.2 1006.1 -
24/02:30pm 28.7 - - - - SW 9 13 5 7 1006.4 1006.3 -
24/02:00pm 29.3 - - - - W 11 17 6 9 1006.5 1006.4 -
24/01:30pm 30.5 - - - - W 9 11 5 6 1006.8 1006.7 -
24/01:00pm 30.2 - - - - WNW 11 13 6 7 1007.0 1006.9 -
24/12:30pm 30.1 - - - - WNW 13 15 7 8 1007.5 1007.4 -
24/12:00pm 30.0 - - - - WNW 15 17 8 9 1007.9 1007.8 -
24/11:30am 29.7 - - - - WNW 15 19 8 10 1008.2 1008.1 -
24/11:00am 29.8 - - - - NW 17 19 9 10 1008.4 1008.3 -
24/10:30am 29.8 - - - - WNW 19 20 10 11 1008.4 1008.3 -
24/10:00am 29.8 - - - - NW 20 22 11 12 1008.5 1008.4 -
24/09:30am 29.9 - - - - NW 20 24 11 13 1008.5 1008.4 -
24/09:00am 30.2 - - - - NNW 17 20 9 11 1008.3 1008.2 -
24/08:30am 29.9 - - - - NNW 19 20 10 11 1008.3 1008.2 -
24/08:00am 30.3 - - - - NNW 17 20 9 11 1008.0 1007.9 -
24/07:30am 30.1 - - - - NNW 17 19 9 10 1007.8 1007.7 -
24/07:00am 29.3 - - - - NNW 19 20 10 11 1007.4 1007.3 -
24/06:30am 29.0 - - - - NNW 17 20 9 11 1006.9 1006.8 -
24/06:00am 28.8 - - - - N 17 19 9 10 1006.6 1006.5 -
24/05:30am 28.7 - - - - N 17 19 9 10 1006.2 1006.1 -
24/05:00am 28.6 - - - - N 19 20 10 11 1006.1 1006.0 -
24/04:30am 28.5 - - - - N 17 20 9 11 1006.2 1006.1 -
24/04:00am 28.8 - - - - N 15 17 8 9 1006.1 1006.0 -
24/03:30am 28.8 - - - - N 13 15 7 8 1006.2 1006.1 -
24/03:00am 28.7 - - - - N 13 15 7 8 1006.3 1006.2 -
24/02:30am 28.7 - - - - N 13 15 7 8 1006.4 1006.3 -
24/02:00am 28.7 - - - - NNE 13 15 7 8 1006.8 1006.7 -
24/01:30am 28.7 - - - - N 13 17 7 9 1007.1 1007.0 -
24/01:00am 28.7 - - - - N 13 15 7 8 1007.6 1007.5 -
24/12:30am 28.7 - - - - NNE 15 17 8 9 1007.8 1007.7 -
24/12:00am 28.8 - - - - NNE 13 15 7 8 1008.1 1008.0 -
 
Date/Time
EST
Temp
°C
App
Temp
°C
Dew
Point
°C
Rel
Hum
%
Delta-T
°C
Wind Press
QNH
hPa
Press
MSL
hPa
Rain since
9am
mm
Dir  Spd
km/h
Gust
km/h
Spd
kts
Gust
kts
23/11:30pm 28.7 - - - - NNE 15 17 8 9 1008.6 1008.5 -
23/11:00pm 28.7 - - - - NNE 15 17 8 9 1008.8 1008.7 -
23/10:30pm 28.6 - - - - NNE 15 19 8 10 1009.1 1009.0 -
23/10:00pm 28.5 - - - - NNE 17 19 9 10 1009.2 1009.1 -
23/09:30pm 28.4 - - - - NE 19 22 10 12 1009.0 1008.9 -
23/09:00pm 28.4 - - - - NE 15 19 8 10 1008.6 1008.5 -
23/08:30pm 28.4 - - - - NE 17 19 9 10 1008.4 1008.3 -
23/08:00pm 28.3 - - - - NNE 17 20 9 11 1008.2 1008.1 -
23/07:30pm 28.1 - - - - NNE 17 20 9 11 1008.0 1007.9 -
23/07:00pm 27.8 - - - - NE 17 20 9 11 1007.5 1007.4 -
23/06:30pm 27.7 - - - - NNE 15 17 8 9 1007.2 1007.1 -
23/06:00pm 27.7 - - - - NE 15 17 8 9 1007.0 1006.9 -
23/05:30pm 27.5 - - - - NE 19 20 10 11 1006.7 1006.6 -
23/05:00pm 27.4 - - - - ENE 19 20 10 11 1006.6 1006.5 -
23/04:30pm 27.3 - - - - ENE 20 24 11 13 1006.3 1006.2 -
23/04:00pm 27.0 - - - - E 22 26 12 14 1006.4 1006.3 -
23/03:30pm 27.0 - - - - ESE 28 33 15 18 1006.5 1006.4 -
23/03:00pm 26.6 - - - - SE 24 28 13 15 1007.2 1007.1 -
23/02:30pm 25.9 - - - - SE 22 28 12 15 1007.6 1007.5 -
23/02:00pm 26.0 - - - - SE 22 26 12 14 1007.9 1007.8 -
23/01:30pm 25.5 - - - - SW 26 32 14 17 1008.1 1008.0 -
23/01:19pm 24.9 - - - - SW 20 37 11 20 1008.2 1008.1 -
23/01:00pm 26.9 - - - - E 11 17 6 9 1008.5 1008.4 -
23/12:30pm 26.8 - - - - ESE 15 20 8 11 1008.8 1008.7 -
23/12:00pm 27.0 - - - - E 19 24 10 13 1009.2 1009.1 -
23/11:30am 27.9 - - - - E 15 22 8 12 1009.2 1009.1 -
23/11:00am 27.6 - - - - ESE 13 13 7 7 1009.4 1009.3 -
23/10:30am 27.2 - - - - E 9 11 5 6 1009.6 1009.5 -
23/10:00am 26.4 - - - - E 13 15 7 8 1009.7 1009.6 -
23/09:30am 26.0 - - - - E 13 17 7 9 1010.0 1009.9 -
23/09:00am 26.0 - - - - NNE 19 24 10 13 1010.0 1009.9 -
23/08:30am 26.9 - - - - N 28 35 15 19 1009.5 1009.4 -
23/08:00am 27.9 - - - - NW 19 28 10 15 1009.3 1009.2 -
23/07:30am 29.0 - - - - N 20 24 11 13 1009.1 1009.0 -
23/07:00am 28.3 - - - - NNE 19 24 10 13 1008.9 1008.8 -
23/06:30am 27.5 - - - - ENE 20 30 11 16 1008.6 1008.5 -
23/06:00am 28.1 - - - - NE 20 24 11 13 1008.2 1008.1 -
23/05:30am 27.0 - - - - NNE 15 22 8 12 1008.3 1008.2 -
23/05:00am 28.2 - - - - NE 22 24 12 13 1007.8 1007.7 -
23/04:30am 28.4 - - - - NE 20 24 11 13 1007.9 1007.8 -
23/04:00am 28.1 - - - - NE 22 26 12 14 1007.3 1007.2 -
23/03:30am 27.8 - - - - ENE 20 22 11 12 1007.2 1007.1 -
23/03:00am 27.5 - - - - ENE 20 26 11 14 1007.2 1007.1 -
23/02:30am 27.6 - - - - ENE 19 20 10 11 1007.6 1007.5 -
23/02:00am 27.7 - - - - ENE 20 24 11 13 1008.2 1008.1 -
23/01:30am 27.4 - - - - NE 22 28 12 15 1008.3 1008.2 -
23/01:00am 27.2 - - - - NE 22 26 12 14 1008.7 1008.6 -
23/12:30am 27.1 - - - - ENE 20 24 11 13 1009.3 1009.2 -
23/12:00am 26.9 - - - - ENE 24 28 13 15 1009.6 1009.5 -
 
Date/Time
EST
Temp
°C
App
Temp
°C
Dew
Point
°C
Rel
Hum
%
Delta-T
°C
Wind Press
QNH
hPa
Press
MSL
hPa
Rain since
9am
mm
Dir  Spd
km/h
Gust
km/h
Spd
kts
Gust
kts
22/11:30pm 26.8 - - - - NE 28 33 15 18 1009.9 1009.8 -
22/11:00pm 26.4 - - - - NE 26 30 14 16 1010.4 1010.3 -
22/10:30pm 26.3 - - - - NE 24 30 13 16 1010.8 1010.7 -
22/10:00pm 26.0 - - - - ENE 30 33 16 18 1011.0 1010.9 -
22/09:30pm 26.3 - - - - ENE 35 39 19 21 1010.8 1010.7 -
22/09:00pm 26.6 - - - - ENE 37 41 20 22 1010.4 1010.3 -
22/08:30pm 26.7 - - - - E 35 41 19 22 1009.9 1009.8 -
22/08:00pm 26.8 - - - - ENE 35 39 19 21 1009.7 1009.6 -
22/07:30pm 27.0 - - - - E 32 35 17 19 1009.6 1009.5 -
22/07:00pm 27.2 - - - - ENE 28 30 15 16 1009.4 1009.3 -
22/06:30pm 27.3 - - - - ENE 26 30 14 16 1009.2 1009.1 -
22/06:00pm 27.5 - - - - ENE 22 26 12 14 1008.6 1008.5 -
22/05:30pm 26.7 - - - - E 24 28 13 15 1008.0 1007.9 -
22/05:00pm 26.7 - - - - E 30 33 16 18 1007.8 1007.7 -
22/04:30pm 27.4 - - - - ESE 28 33 15 18 1007.8 1007.7 -
22/04:00pm 27.1 - - - - ESE 24 30 13 16 1007.9 1007.8 -
22/03:30pm 26.5 - - - - SE 17 24 9 13 1007.9 1007.8 -
22/03:00pm 26.6 - - - - ESE 11 13 6 7 1007.9 1007.8 -
22/02:30pm 26.1 - - - - SSE 7 9 4 5 1008.3 1008.2 -
22/02:00pm 25.8 - - - - S 17 20 9 11 1008.6 1008.5 -
22/01:30pm 25.7 - - - - SSW 17 19 9 10 1008.9 1008.8 -
22/01:00pm 25.7 - - - - S 17 20 9 11 1009.6 1009.5 -
22/12:30pm 25.7 - - - - SSE 24 28 13 15 1009.6 1009.5 -
22/12:00pm 25.7 - - - - SSE 19 24 10 13 1010.2 1010.1 -
22/11:30am 26.0 - - - - SE 20 24 11 13 1010.5 1010.4 -
22/11:00am 26.3 - - - - ESE 19 24 10 13 1010.7 1010.6 -
22/10:30am 26.3 - - - - ENE 20 24 11 13 1010.8 1010.7 -
22/10:00am 26.3 - - - - ENE 26 33 14 18 1011.1 1011.0 -
22/09:49am 27.0 - - - - ESE 20 32 11 17 1011.0 1010.9 -
22/09:30am 28.0 - - - - SW 11 13 6 7 1011.1 1011.0 -
22/09:00am 27.5 - - - - SSW 13 17 7 9 1011.1 1011.0 -
22/08:30am 28.5 - - - - W 11 15 6 8 1010.8 1010.7 -
22/08:00am 27.5 - - - - SSE 6 11 3 6 1010.9 1010.8 -
22/07:30am 26.6 - - - - NNW 15 20 8 11 1010.8 1010.7 -
22/07:10am 28.3 - - - - NNE 28 35 15 19 1010.2 1010.1 -
22/07:00am 29.2 - - - - NNE 15 17 8 9 1010.1 1010.0 -
22/06:30am 28.9 - - - - NNE 20 24 11 13 1009.6 1009.5 -
22/06:00am 28.9 - - - - NE 20 24 11 13 1009.2 1009.1 -
22/05:30am 28.8 - - - - NNE 24 28 13 15 1008.8 1008.7 -
22/05:00am 28.9 - - - - NE 22 26 12 14 1008.5 1008.4 -
22/04:30am 28.9 - - - - NE 22 26 12 14 1008.2 1008.1 -
22/04:00am 28.9 - - - - NE 20 22 11 12 1008.1 1008.0 -
22/03:30am 28.9 - - - - ENE 20 22 11 12 1008.1 1008.0 -
22/03:00am 28.6 - - - - E 17 20 9 11 1008.1 1008.0 -
22/02:30am 27.2 - - - - E 35 39 19 21 1008.1 1008.0 -
22/02:16am 27.8 - - - - ENE 26 44 14 24 1008.1 1008.0 -
22/02:00am 29.1 - - - - NE 20 22 11 12 1008.4 1008.3 -
22/01:30am 29.1 - - - - NE 20 24 11 13 1008.8 1008.7 -
22/01:00am 29.1 - - - - NE 19 20 10 11 1009.1 1009.0 -
22/12:30am 28.9 - - - - NE 24 28 13 15 1009.5 1009.4 -
22/12:00am 28.0 - - - - NNE 20 24 11 13 1009.7 1009.6 -
 
Date/Time
EST
Temp
°C
App
Temp
°C
Dew
Point
°C
Rel
Hum
%
Delta-T
°C
Wind Press
QNH
hPa
Press
MSL
hPa
Rain since
9am
mm
Dir  Spd
km/h
Gust
km/h
Spd
kts
Gust
kts
21/11:30pm 29.0 - - - - ESE 13 28 7 15 1009.9 1009.8 -
21/11:00pm 27.6 - - - - ENE 20 37 11 20 1010.1 1010.0 -
21/10:30pm 29.1 - - - - E 15 17 8 9 1010.2 1010.1 -
21/10:00pm 29.0 - - - - E 19 26 10 14 1010.2 1010.1 -
21/09:30pm 29.3 - - - - E 17 20 9 11 1010.1 1010.0 -
21/09:00pm 29.2 - - - - E 17 20 9 11 1010.0 1009.9 -
21/08:30pm 29.3 - - - - E 17 20 9 11 1009.7 1009.6 -
21/08:00pm 29.0 - - - - E 19 20 10 11 1009.4 1009.3 -
21/07:30pm 29.5 - - - - E 19 24 10 13 1009.2 1009.1 -
21/07:00pm 28.8 - - - - E 20 24 11 13 1008.9 1008.8 -
21/06:30pm 28.6 - - - - E 26 30 14 16 1008.6 1008.5 -
21/06:00pm 29.2 - - - - ESE 17 22 9 12 1008.3 1008.2 -
21/05:30pm 29.2 - - - - E 17 20 9 11 1008.2 1008.1 -
21/05:00pm 29.4 - - - - E 13 15 7 8 1008.0 1007.9 -
21/04:30pm 29.3 - - - - ENE 11 15 6 8 1007.8 1007.7 -

Other formats

Comma delimited format used in spreadsheet applications
http://www.bom.gov.au/fwo/IDQ60801/IDQ60801.95288.axf

JavaScript Object Notation format (JSON) in row-major order
http://www.bom.gov.au/fwo/IDQ60801/IDQ60801.95288.json

Data quality

Most of these data are generated automatically and are frequently updated. Quality checks on data are not normally performed. It is possible for incorrect values to appear. Refer to information at About Latest Weather Observations and please check the disclaimer before using these data.